Time;durP1;ratioP1;P1;durP2;ratioP2;P2;SDS_P1;SDS_P2;PMS_P1;PMS_P2;Temp;Humidity;BMP_temperature;BMP_pressure;BME280_temperature;BME280_humidity;BME280_pressure;Samples;Min_cycle;Max_cycle;Signal;HPM_P1;HPM_P2
2023/08/26 00:02:26;;;;;;;5.13;1.30;;;14.90;99.90;;;;;;5063352;28;20662;-78
2023/08/26 00:04:53;;;;;;;4.70;1.40;;;14.80;99.90;;;;;;5080557;28;20070;-79
2023/08/26 00:07:20;;;;;;;3.35;1.20;;;14.80;99.90;;;;;;5055708;28;20072;-79
2023/08/26 00:09:47;;;;;;;2.95;1.10;;;14.70;99.90;;;;;;5066639;28;20040;-81
2023/08/26 00:12:14;;;;;;;2.75;1.15;;;14.60;99.90;;;;;;5038455;28;20041;-83
2023/08/26 00:14:40;;;;;;;4.85;1.33;;;14.60;99.90;;;;;;5071548;28;20047;-83
2023/08/26 00:17:07;;;;;;;8.57;1.23;;;14.60;99.90;;;;;;5070819;28;20049;-82
2023/08/26 00:19:34;;;;;;;2.95;1.10;;;14.50;99.90;;;;;;5075304;28;20068;-80
2023/08/26 00:22:01;;;;;;;3.15;1.10;;;14.50;99.90;;;;;;5077954;28;20422;-81
2023/08/26 00:24:27;;;;;;;3.83;1.20;;;14.40;99.90;;;;;;5096191;28;20442;-80
2023/08/26 00:26:54;;;;;;;3.50;1.30;;;14.40;99.90;;;;;;5055220;28;20487;-81
2023/08/26 00:29:21;;;;;;;4.32;1.30;;;14.40;99.90;;;;;;5042175;28;20471;-81
2023/08/26 00:31:48;;;;;;;4.45;1.33;;;14.30;99.90;;;;;;5063837;28;20402;-81
2023/08/26 00:34:15;;;;;;;6.03;1.30;;;14.30;99.90;;;;;;5060059;28;20396;-82
2023/08/26 00:36:41;;;;;;;6.85;1.30;;;14.30;99.90;;;;;;5083809;28;20071;-82
2023/08/26 00:39:08;;;;;;;3.95;1.20;;;14.20;99.90;;;;;;5044436;28;20101;-81
2023/08/26 00:41:35;;;;;;;2.85;1.00;;;14.20;99.90;;;;;;5069817;28;20089;-83
2023/08/26 00:44:02;;;;;;;3.00;1.30;;;14.20;99.90;;;;;;5071151;28;20387;-79
2023/08/26 00:46:29;;;;;;;4.38;1.15;;;14.20;99.90;;;;;;5077332;28;20512;-81
2023/08/26 00:48:55;;;;;;;2.30;1.10;;;14.10;99.90;;;;;;5077197;28;20050;-80
2023/08/26 00:51:22;;;;;;;4.13;1.73;;;14.10;99.90;;;;;;5067867;28;20102;-80
2023/08/26 00:53:49;;;;;;;5.05;1.35;;;14.10;99.90;;;;;;5045536;28;20041;-81
2023/08/26 00:56:16;;;;;;;4.97;1.20;;;14.00;99.90;;;;;;5044787;28;20093;-82
2023/08/26 00:58:43;;;;;;;4.68;1.10;;;14.00;99.90;;;;;;5057804;28;20056;-79
2023/08/26 01:01:09;;;;;;;1.83;0.93;;;14.00;99.90;;;;;;5050985;28;20043;-81
2023/08/26 01:03:36;;;;;;;5.55;1.30;;;14.00;99.90;;;;;;5053730;28;20047;-82
2023/08/26 01:06:03;;;;;;;4.40;1.45;;;14.00;99.90;;;;;;5077277;28;20043;-81
2023/08/26 01:08:30;;;;;;;4.05;1.45;;;14.00;99.90;;;;;;5063421;28;20037;-80
2023/08/26 01:10:57;;;;;;;2.70;1.02;;;14.00;99.90;;;;;;5063016;28;20119;-79
2023/08/26 01:13:24;;;;;;;4.90;1.45;;;13.90;99.90;;;;;;5038677;28;20098;-81
2023/08/26 01:15:50;;;;;;;3.45;1.10;;;14.00;99.90;;;;;;5048271;28;20067;-81
2023/08/26 01:18:17;;;;;;;3.90;1.40;;;14.00;99.90;;;;;;5046640;28;20371;-80
2023/08/26 01:20:45;;;;;;;3.30;1.13;;;13.90;99.90;;;;;;5077321;28;20113;-80
2023/08/26 01:23:11;;;;;;;15.68;1.38;;;13.90;99.90;;;;;;5075570;28;20036;-79
2023/08/26 01:25:38;;;;;;;6.82;1.35;;;13.90;99.90;;;;;;5037529;28;20106;-80
2023/08/26 01:28:05;;;;;;;2.75;1.02;;;13.80;99.90;;;;;;5050026;28;20117;-81
2023/08/26 01:30:32;;;;;;;5.85;1.23;;;13.80;99.90;;;;;;5037342;28;20106;-80
2023/08/26 01:32:58;;;;;;;4.95;1.30;;;13.90;99.90;;;;;;5060448;28;20036;-82
2023/08/26 01:35:25;;;;;;;11.88;1.50;;;13.80;99.90;;;;;;5048738;28;20089;-80
2023/08/26 01:37:54;;;;;;;5.05;1.25;;;13.80;99.90;;;;;;5056318;28;20045;-79
2023/08/26 01:40:22;;;;;;;2.15;1.00;;;13.90;99.90;;;;;;5038919;28;20503;-82
2023/08/26 01:42:48;;;;;;;7.93;1.20;;;13.80;99.90;;;;;;5048027;28;20045;-82
2023/08/26 01:45:15;;;;;;;7.60;2.25;;;13.80;99.90;;;;;;5084661;28;20044;-81
2023/08/26 01:47:42;;;;;;;5.68;1.30;;;13.80;99.90;;;;;;5062103;28;20076;-79
2023/08/26 01:50:11;;;;;;;4.55;1.48;;;13.70;99.90;;;;;;5073498;28;20078;-82
2023/08/26 01:52:37;;;;;;;2.83;1.05;;;13.70;99.90;;;;;;5075024;28;20398;-82
2023/08/26 01:55:04;;;;;;;5.80;1.30;;;13.70;99.90;;;;;;5092880;28;20036;-82
2023/08/26 01:57:33;;;;;;;3.35;1.48;;;13.70;99.90;;;;;;5076832;28;20421;-80
2023/08/26 02:00:02;;;;;;;4.40;1.55;;;13.60;99.90;;;;;;5079609;28;20534;-79
2023/08/26 02:02:40;;;;;;;3.22;1.20;;;13.60;99.90;;;;;;5093490;28;20040;-80
2023/08/26 02:05:07;;;;;;;5.05;1.25;;;13.50;99.90;;;;;;5094586;28;20218;-82
2023/08/26 02:07:36;;;;;;;7.60;1.38;;;13.50;99.90;;;;;;5094236;28;20123;-80
2023/08/26 02:10:03;;;;;;;2.85;1.35;;;13.50;99.90;;;;;;5079013;28;20456;-79
2023/08/26 02:12:32;;;;;;;2.75;1.20;;;13.50;99.90;;;;;;5068680;28;20052;-81
2023/08/26 02:15:01;;;;;;;7.45;1.63;;;13.50;99.90;;;;;;5094306;28;20098;-81
2023/08/26 02:17:29;;;;;;;7.05;1.10;;;13.50;99.90;;;;;;5098293;28;20044;-79
2023/08/26 02:19:56;;;;;;;2.88;1.20;;;13.50;99.90;;;;;;5093950;28;20044;-81
2023/08/26 02:22:23;;;;;;;3.05;1.30;;;13.40;99.90;;;;;;5065427;28;20471;-82
2023/08/26 02:24:49;;;;;;;4.50;1.10;;;13.40;99.90;;;;;;5092473;28;20052;-81
2023/08/26 02:27:19;;;;;;;2.20;0.98;;;13.40;99.90;;;;;;5072371;28;20047;-80
2023/08/26 02:29:46;;;;;;;3.33;1.10;;;13.40;99.90;;;;;;5090925;28;20044;-80
2023/08/26 02:32:14;;;;;;;3.80;1.38;;;13.40;99.90;;;;;;5096901;28;20032;-82
2023/08/26 02:34:41;;;;;;;1.98;1.10;;;13.30;99.90;;;;;;5067123;28;20044;-82
2023/08/26 02:37:08;;;;;;;3.63;1.48;;;13.30;99.90;;;;;;5074598;28;20045;-80
2023/08/26 02:39:35;;;;;;;4.38;1.58;;;13.30;99.90;;;;;;5087761;28;20068;-81
2023/08/26 02:42:02;;;;;;;7.03;1.48;;;13.30;99.90;;;;;;5096884;28;20050;-82
2023/08/26 02:44:28;;;;;;;8.50;1.33;;;13.30;99.90;;;;;;5097334;28;20061;-80
2023/08/26 02:46:57;;;;;;;2.83;1.20;;;13.30;99.90;;;;;;5081685;28;20106;-81
2023/08/26 02:49:24;;;;;;;2.42;1.10;;;13.20;99.90;;;;;;5097549;28;20123;-83
2023/08/26 02:51:51;;;;;;;4.60;1.48;;;13.20;99.90;;;;;;5070414;28;20067;-81
2023/08/26 02:54:19;;;;;;;3.78;1.23;;;13.20;99.90;;;;;;5042740;28;20448;-80
2023/08/26 02:56:46;;;;;;;1.92;1.00;;;13.10;99.90;;;;;;5040354;28;20056;-82
2023/08/26 02:59:12;;;;;;;5.18;1.27;;;13.10;99.90;;;;;;5068383;28;20074;-80
2023/08/26 03:01:40;;;;;;;3.47;1.15;;;13.00;99.90;;;;;;5068851;28;20454;-82
2023/08/26 03:04:06;;;;;;;6.32;1.42;;;13.00;99.90;;;;;;5055102;28;20068;-80
2023/08/26 03:06:33;;;;;;;5.05;1.48;;;13.00;99.90;;;;;;5057329;28;20500;-79
2023/08/26 03:09:00;;;;;;;5.85;1.60;;;13.00;99.90;;;;;;5059358;28;20113;-80
2023/08/26 03:11:26;;;;;;;4.55;1.48;;;13.00;99.90;;;;;;5042440;28;20045;-82
2023/08/26 03:13:53;;;;;;;5.10;1.30;;;12.90;99.90;;;;;;5047618;28;20406;-83
2023/08/26 03:16:20;;;;;;;3.70;1.00;;;13.00;99.90;;;;;;5046319;28;20357;-83
2023/08/26 03:18:47;;;;;;;3.28;1.20;;;13.00;99.90;;;;;;5055953;28;20114;-79
2023/08/26 03:21:14;;;;;;;3.80;1.27;;;12.90;99.90;;;;;;5058111;28;20360;-80
2023/08/26 03:23:41;;;;;;;3.25;1.27;;;12.90;99.90;;;;;;5067491;28;20049;-80
2023/08/26 03:26:08;;;;;;;2.88;1.20;;;12.90;99.90;;;;;;5021942;28;20072;-82
2023/08/26 03:28:35;;;;;;;3.70;1.33;;;12.90;99.90;;;;;;5030175;28;20117;-81
2023/08/26 03:31:06;;;;;;;3.33;1.30;;;12.80;99.90;;;;;;5079117;28;20037;-80
2023/08/26 03:33:34;;;;;;;3.13;1.20;;;12.90;99.90;;;;;;5072509;28;20041;-80
2023/08/26 03:36:01;;;;;;;4.88;1.23;;;12.80;99.90;;;;;;5057519;28;20051;-84
2023/08/26 03:38:28;;;;;;;9.75;1.33;;;12.80;99.90;;;;;;5050869;28;20091;-83
2023/08/26 03:40:55;;;;;;;3.42;1.13;;;12.80;99.90;;;;;;5078420;28;20048;-81
2023/08/26 03:43:21;;;;;;;10.70;1.70;;;12.80;99.90;;;;;;5052005;28;20041;-81
2023/08/26 03:45:48;;;;;;;3.67;1.40;;;12.70;99.90;;;;;;5062007;28;20113;-81
2023/08/26 03:48:15;;;;;;;3.03;1.17;;;12.70;99.90;;;;;;5069675;28;20036;-79
2023/08/26 03:50:42;;;;;;;4.03;1.52;;;12.70;99.90;;;;;;5072581;28;20428;-82
2023/08/26 03:53:09;;;;;;;3.08;1.30;;;12.70;99.90;;;;;;5080630;28;20120;-80
2023/08/26 03:55:36;;;;;;;2.35;1.10;;;12.70;99.90;;;;;;5066390;28;20075;-80
2023/08/26 03:58:04;;;;;;;4.40;1.30;;;12.60;99.90;;;;;;5094088;28;20151;-79
2023/08/26 04:00:31;;;;;;;8.18;1.90;;;12.60;99.90;;;;;;5094959;28;20044;-79
2023/08/26 04:02:58;;;;;;;2.72;1.05;;;12.60;99.90;;;;;;5088868;28;20059;-82
2023/08/26 04:05:24;;;;;;;5.85;1.38;;;12.50;99.90;;;;;;5084193;28;20139;-80
2023/08/26 04:07:51;;;;;;;2.55;1.23;;;12.50;99.90;;;;;;5094581;28;20047;-82
2023/08/26 04:10:18;;;;;;;3.95;1.55;;;12.50;99.90;;;;;;5095181;28;20047;-81
2023/08/26 04:12:45;;;;;;;3.65;1.20;;;12.40;99.90;;;;;;5074894;28;20048;-81
2023/08/26 04:15:11;;;;;;;3.58;1.50;;;12.40;99.90;;;;;;5074167;28;20045;-83
2023/08/26 04:17:39;;;;;;;3.60;1.40;;;12.40;99.90;;;;;;5074850;28;20048;-82
2023/08/26 04:20:06;;;;;;;3.42;1.30;;;12.40;99.90;;;;;;5088121;28;20041;-82
2023/08/26 04:22:33;;;;;;;3.08;1.15;;;12.30;99.90;;;;;;5085772;28;20066;-81
2023/08/26 04:25:00;;;;;;;4.80;1.40;;;12.30;99.90;;;;;;5074724;28;20045;-82
2023/08/26 04:27:28;;;;;;;7.78;1.63;;;12.30;99.90;;;;;;5073823;28;20144;-79
2023/08/26 04:29:54;;;;;;;3.15;1.30;;;12.20;99.90;;;;;;5069317;28;20068;-82
2023/08/26 04:32:21;;;;;;;2.67;1.15;;;12.20;99.90;;;;;;5060970;28;20049;-81
2023/08/26 04:34:48;;;;;;;3.72;1.42;;;12.20;99.90;;;;;;5083627;28;20479;-81
2023/08/26 04:37:15;;;;;;;5.43;1.40;;;12.10;99.90;;;;;;5095007;28;20089;-82
2023/08/26 04:39:42;;;;;;;3.10;1.17;;;12.10;99.90;;;;;;5093913;28;20036;-81
2023/08/26 04:42:09;;;;;;;3.08;1.20;;;12.10;99.90;;;;;;5094313;28;20040;-81
2023/08/26 04:44:36;;;;;;;4.22;1.38;;;12.10;99.90;;;;;;5095887;28;20055;-83
2023/08/26 04:47:05;;;;;;;3.53;1.50;;;12.10;99.90;;;;;;5079416;28;20419;-79
2023/08/26 04:49:32;;;;;;;3.42;1.30;;;12.10;99.90;;;;;;5094456;28;20110;-79
2023/08/26 04:51:59;;;;;;;2.40;1.20;;;12.10;99.90;;;;;;5066915;28;20049;-82
2023/08/26 04:54:26;;;;;;;3.20;1.30;;;12.00;99.90;;;;;;5087519;28;20036;-82
2023/08/26 04:56:54;;;;;;;3.85;1.50;;;12.00;99.90;;;;;;5083155;28;20101;-83
2023/08/26 04:59:21;;;;;;;6.57;1.25;;;12.00;99.90;;;;;;5076432;28;20474;-81
2023/08/26 05:01:47;;;;;;;4.78;1.70;;;12.00;99.90;;;;;;5072750;28;20058;-82
2023/08/26 05:04:14;;;;;;;4.78;1.83;;;11.90;99.90;;;;;;5070298;28;20052;-80
2023/08/26 05:06:42;;;;;;;4.35;1.58;;;11.90;99.90;;;;;;5093272;28;20131;-81
2023/08/26 05:09:09;;;;;;;4.40;1.40;;;11.90;99.90;;;;;;5065518;28;20106;-81
2023/08/26 05:11:36;;;;;;;5.50;1.40;;;11.90;99.90;;;;;;5092822;28;20028;-78
2023/08/26 05:14:03;;;;;;;4.18;1.40;;;11.90;99.90;;;;;;5076782;28;20040;-79
2023/08/26 05:16:30;;;;;;;2.92;1.30;;;11.90;99.90;;;;;;5091558;28;20071;-82
2023/08/26 05:18:57;;;;;;;4.38;1.55;;;11.90;99.90;;;;;;5082272;28;20056;-80
2023/08/26 05:21:24;;;;;;;2.97;1.13;;;11.90;99.90;;;;;;5092205;28;20052;-80
2023/08/26 05:23:50;;;;;;;4.47;1.55;;;11.90;99.90;;;;;;5081226;28;20082;-81
2023/08/26 05:26:17;;;;;;;6.28;1.73;;;11.80;99.90;;;;;;5085858;28;20048;-82
2023/08/26 05:28:44;;;;;;;3.85;1.30;;;11.80;99.90;;;;;;5057880;28;20495;-79
2023/08/26 05:31:11;;;;;;;4.40;1.50;;;11.90;99.90;;;;;;5073957;28;20036;-83
2023/08/26 05:33:40;;;;;;;4.45;1.65;;;11.90;99.90;;;;;;5076751;28;20040;-81
2023/08/26 05:36:06;;;;;;;5.00;1.85;;;12.00;99.90;;;;;;5080113;28;20048;-79
2023/08/26 05:38:34;;;;;;;2.85;1.25;;;11.90;99.90;;;;;;5087627;28;20056;-78
2023/08/26 05:41:01;;;;;;;6.18;1.40;;;12.00;99.90;;;;;;5072665;28;20360;-78
2023/08/26 05:43:29;;;;;;;4.60;1.48;;;12.00;99.90;;;;;;5072976;28;20044;-82
2023/08/26 05:45:57;;;;;;;3.60;1.65;;;12.10;99.90;;;;;;5084593;28;20101;-82
2023/08/26 05:48:24;;;;;;;4.05;1.50;;;12.20;99.90;;;;;;5080170;28;20040;-80
2023/08/26 05:50:50;;;;;;;4.30;1.50;;;12.20;99.90;;;;;;5097339;28;20151;-79
2023/08/26 05:53:17;;;;;;;5.63;1.80;;;12.20;99.90;;;;;;5079137;28;20036;-81
2023/08/26 05:55:44;;;;;;;5.22;1.73;;;12.30;99.90;;;;;;5097980;28;20036;-80
2023/08/26 05:58:11;;;;;;;5.60;1.85;;;12.40;99.90;;;;;;5081225;28;20048;-83
2023/08/26 06:00:39;;;;;;;4.28;1.50;;;12.50;99.90;;;;;;5085118;28;20428;-79
2023/08/26 06:03:06;;;;;;;5.63;1.70;;;12.50;99.90;;;;;;5095396;28;20055;-81
2023/08/26 06:05:32;;;;;;;4.22;1.60;;;12.60;99.90;;;;;;5098062;28;20131;-80
2023/08/26 06:10:31;;;;;;;4.03;1.50;;;12.80;99.90;;;;;;5097467;28;20041;-81
2023/08/26 06:12:59;;;;;;;6.15;1.70;;;12.90;99.90;;;;;;5090420;28;20040;-82
2023/08/26 06:15:27;;;;;;;5.40;1.80;;;13.00;99.90;;;;;;5072905;28;20077;-80
2023/08/26 06:17:55;;;;;;;4.53;1.67;;;13.10;99.90;;;;;;5091173;28;20039;-79
2023/08/26 06:20:25;;;;;;;3.95;1.42;;;13.20;99.90;;;;;;5097883;28;20366;-83
2023/08/26 06:22:52;;;;;;;5.18;1.60;;;13.30;99.90;;;;;;5085210;28;20037;-80
2023/08/26 06:25:20;;;;;;;7.20;2.00;;;13.40;99.90;;;;;;5087450;28;20044;-82
2023/08/26 06:27:48;;;;;;;6.78;1.70;;;13.60;99.90;;;;;;5085176;28;20529;-80
2023/08/26 06:30:14;;;;;;;5.50;1.83;;;13.70;99.90;;;;;;5080354;28;20044;-80
2023/08/26 06:32:41;;;;;;;5.97;1.73;;;13.90;99.90;;;;;;5082905;28;20103;-83
2023/08/26 06:35:10;;;;;;;5.07;1.67;;;14.00;99.90;;;;;;5071786;28;20136;-83
2023/08/26 06:37:38;;;;;;;4.45;1.65;;;14.10;99.90;;;;;;5068766;28;20075;-82
2023/08/26 06:40:05;;;;;;;4.85;1.98;;;14.10;99.90;;;;;;5087622;28;20045;-83
2023/08/26 06:42:32;;;;;;;5.75;1.70;;;14.30;99.90;;;;;;5091624;28;20068;-81
2023/08/26 06:45:01;;;;;;;5.68;2.05;;;14.40;99.90;;;;;;5080154;28;20139;-81
2023/08/26 06:47:29;;;;;;;5.22;1.77;;;14.60;99.90;;;;;;5078681;28;20040;-80
2023/08/26 06:49:56;;;;;;;4.47;1.77;;;14.70;99.90;;;;;;5096546;28;20056;-83
2023/08/26 06:52:23;;;;;;;4.75;1.80;;;14.80;99.90;;;;;;5061182;28;20048;-83
2023/08/26 06:54:50;;;;;;;4.80;1.75;;;14.90;99.90;;;;;;5082255;28;20420;-79
2023/08/26 06:57:18;;;;;;;3.72;1.50;;;15.00;99.90;;;;;;5097487;28;20036;-79
2023/08/26 06:59:44;;;;;;;4.25;1.52;;;15.10;99.90;;;;;;5082536;28;20120;-82
2023/08/26 07:02:12;;;;;;;5.18;2.03;;;15.20;99.90;;;;;;5087766;28;20071;-84
2023/08/26 07:04:38;;;;;;;4.05;1.55;;;15.40;99.90;;;;;;5093106;28;20138;-80
2023/08/26 07:07:05;;;;;;;6.25;2.08;;;15.50;99.90;;;;;;5084002;28;20101;-82
2023/08/26 07:09:32;;;;;;;6.32;2.28;;;15.60;99.90;;;;;;5095369;28;20056;-83
2023/08/26 07:11:58;;;;;;;5.05;2.15;;;15.70;99.90;;;;;;5059487;28;20044;-83
2023/08/26 07:14:28;;;;;;;6.65;2.47;;;15.90;99.90;;;;;;5075442;28;20537;-85
2023/08/26 07:19:26;;;;;;;5.63;2.10;;;16.00;99.90;;;;;;5077487;28;20075;-84
2023/08/26 07:21:52;;;;;;;5.43;2.03;;;16.10;99.90;;;;;;5078712;28;20530;-81
2023/08/26 07:24:19;;;;;;;8.52;2.10;;;16.30;99.90;;;;;;5092342;28;20456;-82
2023/08/26 07:26:46;;;;;;;5.10;1.92;;;16.50;99.90;;;;;;5075842;28;20502;-84
2023/08/26 07:29:13;;;;;;;4.63;1.85;;;16.60;99.90;;;;;;5094059;28;20458;-84
2023/08/26 07:31:40;;;;;;;5.18;1.90;;;16.70;99.90;;;;;;5077699;28;20070;-83
2023/08/26 07:34:06;;;;;;;4.22;1.67;;;16.70;99.90;;;;;;5083859;28;20043;-81
2023/08/26 07:36:33;;;;;;;4.95;2.00;;;16.90;99.90;;;;;;5097031;28;20123;-79
2023/08/26 07:39:00;;;;;;;5.18;2.08;;;17.10;99.90;;;;;;5091033;28;20515;-82
2023/08/26 07:41:26;;;;;;;5.85;2.40;;;17.10;99.90;;;;;;5087504;28;20090;-84
2023/08/26 07:43:54;;;;;;;8.57;2.50;;;16.90;99.90;;;;;;5096957;28;20351;-80
2023/08/26 07:46:22;;;;;;;6.22;2.05;;;16.90;99.90;;;;;;5085505;28;20049;-80
2023/08/26 07:48:52;;;;;;;5.13;2.10;;;16.90;99.90;;;;;;5092603;28;20054;-81
2023/08/26 07:51:19;;;;;;;6.03;2.33;;;17.00;99.90;;;;;;5069358;28;20036;-82
2023/08/26 07:53:45;;;;;;;5.75;2.30;;;17.20;99.90;;;;;;5047375;28;20060;-81
2023/08/26 07:56:12;;;;;;;7.57;2.17;;;17.20;99.90;;;;;;5074044;28;20044;-81
2023/08/26 07:58:41;;;;;;;6.80;2.42;;;17.30;99.90;;;;;;5046730;28;20440;-80
2023/08/26 08:01:08;;;;;;;7.20;2.15;;;17.30;99.90;;;;;;5052310;28;20425;-81
2023/08/26 08:03:34;;;;;;;5.43;2.10;;;17.40;99.90;;;;;;5075664;28;20041;-83
2023/08/26 08:06:01;;;;;;;7.47;2.25;;;17.40;99.90;;;;;;5043791;28;20057;-80
2023/08/26 08:08:28;;;;;;;5.70;2.08;;;17.40;99.90;;;;;;5071751;28;20123;-79
2023/08/26 08:10:57;;;;;;;7.90;1.80;;;17.40;99.90;;;;;;5075057;28;20378;-82
2023/08/26 08:13:24;;;;;;;5.47;1.90;;;17.60;99.90;;;;;;5079920;28;20089;-82
2023/08/26 08:15:50;;;;;;;5.15;1.80;;;17.70;99.90;;;;;;5056078;28;20067;-80
2023/08/26 08:18:17;;;;;;;4.53;1.70;;;17.60;99.90;;;;;;5044223;28;20036;-79
2023/08/26 08:20:44;;;;;;;4.45;1.60;;;17.80;99.90;;;;;;5085371;28;20098;-83
2023/08/26 08:23:10;;;;;;;4.95;2.08;;;18.00;99.90;;;;;;5090128;28;20040;-88
2023/08/26 08:25:37;;;;;;;5.70;1.85;;;17.90;99.90;;;;;;5048799;28;20531;-80
2023/08/26 08:30:34;;;;;;;4.88;1.60;;;18.00;99.90;;;;;;5067741;28;20064;-87
2023/08/26 08:33:00;;;;;;;8.35;1.65;;;18.10;99.90;;;;;;5052710;28;20033;-81
2023/08/26 08:35:27;;;;;;;4.97;1.70;;;18.40;99.90;;;;;;5072860;28;20048;-83
2023/08/26 08:37:54;;;;;;;5.35;1.67;;;18.60;99.90;;;;;;5064878;28;20080;-80
2023/08/26 08:40:21;;;;;;;3.72;1.40;;;18.80;99.90;;;;;;5071406;28;20054;-81
2023/08/26 08:42:47;;;;;;;5.95;1.60;;;18.90;99.90;;;;;;5066807;28;20052;-84
2023/08/26 08:45:14;;;;;;;3.67;1.48;;;19.00;99.90;;;;;;5055362;28;20106;-81
2023/08/26 08:47:42;;;;;;;5.03;1.60;;;19.00;99.90;;;;;;5054812;28;20460;-84
2023/08/26 08:50:09;;;;;;;4.95;1.50;;;19.00;99.90;;;;;;5058770;28;20185;-81
2023/08/26 08:52:38;;;;;;;4.03;1.40;;;19.00;99.90;;;;;;5094593;28;20123;-83
2023/08/26 08:55:05;;;;;;;3.38;1.38;;;19.10;99.90;;;;;;5095058;28;20466;-85
2023/08/26 08:57:32;;;;;;;5.00;1.70;;;19.50;99.90;;;;;;5095433;28;20044;-81
2023/08/26 08:59:59;;;;;;;5.00;1.50;;;19.60;99.90;;;;;;5076965;28;20446;-84
2023/08/26 09:02:26;;;;;;;5.28;1.88;;;19.60;99.90;;;;;;5094422;28;20147;-85
2023/08/26 09:04:53;;;;;;;4.05;1.35;;;19.80;99.90;;;;;;5076172;28;20053;-83
2023/08/26 09:07:21;;;;;;;4.32;1.33;;;19.60;99.90;;;;;;5073327;28;20161;-83
2023/08/26 09:09:47;;;;;;;3.70;1.42;;;19.70;99.90;;;;;;5089059;28;20040;-81
2023/08/26 09:12:27;;;;;;;4.50;1.50;;;19.90;99.90;;;;;;5074799;28;20036;-84
2023/08/26 09:14:54;;;;;;;4.07;1.30;;;20.20;99.90;;;;;;5092552;28;20474;-83
2023/08/26 09:17:21;;;;;;;3.70;1.30;;;20.10;99.90;;;;;;5085592;28;20075;-81
2023/08/26 09:19:47;;;;;;;4.00;1.40;;;20.20;99.90;;;;;;5076131;28;20127;-82
2023/08/26 09:22:16;;;;;;;5.55;1.50;;;20.20;99.90;;;;;;5087145;28;20543;-84
2023/08/26 09:24:43;;;;;;;3.72;1.38;;;20.50;99.90;;;;;;5084680;28;20520;-79
2023/08/26 09:27:10;;;;;;;3.53;1.40;;;20.60;99.90;;;;;;5094117;28;20114;-83
2023/08/26 09:29:37;;;;;;;4.05;1.38;;;20.80;99.90;;;;;;5082018;28;20501;-78
2023/08/26 09:32:03;;;;;;;3.95;1.40;;;21.10;99.90;;;;;;5088630;28;20045;-83
2023/08/26 09:34:32;;;;;;;1.90;1.00;;;21.20;99.90;;;;;;5084384;28;20115;-81
2023/08/26 09:37:00;;;;;;;2.90;1.15;;;21.30;99.90;;;;;;5094678;28;20423;-85
2023/08/26 09:39:27;;;;;;;2.75;1.15;;;21.40;99.90;;;;;;5093821;28;20082;-83
2023/08/26 09:41:54;;;;;;;3.47;1.10;;;21.50;99.90;;;;;;5093736;28;20082;-84
2023/08/26 09:44:21;;;;;;;3.72;1.08;;;21.40;99.90;;;;;;5086845;28;20044;-83
2023/08/26 09:46:49;;;;;;;4.57;1.20;;;21.40;99.90;;;;;;5083470;28;20072;-84
2023/08/26 09:49:16;;;;;;;4.88;1.25;;;21.00;99.90;;;;;;5080201;28;20082;-82
2023/08/26 09:51:43;;;;;;;13.40;1.85;;;19.90;99.90;;;;;;5085606;28;20036;-82
2023/08/26 09:54:09;;;;;;;6.80;1.70;;;18.20;99.90;;;;;;5075763;28;20138;-82
2023/08/26 09:59:22;;;;;;;4.40;1.48;;;16.60;99.90;;;;;;5097780;28;20466;-86
2023/08/26 10:01:48;;;;;;;4.15;1.45;;;16.60;99.90;;;;;;5093218;28;20447;-80
2023/08/26 10:04:15;;;;;;;3.65;1.45;;;16.90;99.90;;;;;;5093620;28;20040;-82
2023/08/26 10:06:43;;;;;;;4.63;1.40;;;17.30;99.90;;;;;;5087665;28;20406;-83
2023/08/26 10:09:10;;;;;;;5.43;1.48;;;17.70;99.90;;;;;;5073281;28;20442;-82
2023/08/26 10:11:36;;;;;;;4.00;1.42;;;18.20;99.90;;;;;;5077301;28;20024;-81
2023/08/26 10:14:03;;;;;;;11.30;1.60;;;18.40;99.90;;;;;;5079500;28;20053;-81
2023/08/26 10:16:30;;;;;;;3.60;1.30;;;18.50;99.90;;;;;;5074123;28;20115;-85
2023/08/26 10:19:03;;;;;;;4.10;1.50;;;18.50;99.90;;;;;;5074245;28;20494;-82
2023/08/26 10:21:30;;;;;;;5.25;1.70;;;18.40;99.90;;;;;;5072252;28;20123;-82
2023/08/26 10:23:57;;;;;;;2.70;1.20;;;18.10;99.90;;;;;;5093548;28;20419;-83
2023/08/26 10:26:23;;;;;;;4.15;1.67;;;17.90;99.90;;;;;;5079431;28;20588;-83
2023/08/26 10:28:51;;;;;;;2.58;1.10;;;17.80;99.90;;;;;;5074944;28;20128;-84
2023/08/26 10:31:18;;;;;;;4.15;1.40;;;17.60;99.90;;;;;;5090161;28;20085;-84
2023/08/26 10:33:44;;;;;;;3.88;1.38;;;17.50;99.90;;;;;;5092812;28;20040;-79
2023/08/26 10:36:12;;;;;;;2.65;1.20;;;17.40;99.90;;;;;;5076983;28;20135;-84
2023/08/26 10:38:40;;;;;;;6.32;1.33;;;17.70;99.90;;;;;;5093774;28;20055;-80
2023/08/26 10:41:06;;;;;;;4.45;1.33;;;17.70;99.90;;;;;;5096983;28;20105;-81
2023/08/26 10:43:33;;;;;;;6.55;1.52;;;17.70;99.90;;;;;;5095498;28;20083;-82
2023/08/26 10:46:01;;;;;;;8.35;1.63;;;17.60;99.90;;;;;;5090215;28;20040;-81
2023/08/26 10:50:57;;;;;;;4.97;1.63;;;17.60;99.90;;;;;;5078201;28;20052;-85
2023/08/26 10:53:24;;;;;;;6.32;1.73;;;17.60;99.90;;;;;;5096879;28;20518;-83
2023/08/26 10:55:52;;;;;;;6.43;2.00;;;17.70;99.90;;;;;;5086221;28;20086;-84
2023/08/26 10:58:21;;;;;;;4.32;1.70;;;17.90;99.90;;;;;;5096847;28;20115;-83
2023/08/26 11:00:47;;;;;;;4.22;1.80;;;18.10;99.90;;;;;;5095640;28;20109;-82
2023/08/26 11:03:14;;;;;;;3.58;1.60;;;18.70;99.90;;;;;;5082191;28;20079;-84
2023/08/26 11:05:41;;;;;;;5.35;1.77;;;19.00;99.90;;;;;;5097870;28;20504;-82
2023/08/26 11:08:08;;;;;;;4.95;2.00;;;19.30;99.90;;;;;;5092891;28;20040;-82
2023/08/26 11:10:34;;;;;;;6.35;1.77;;;19.40;99.90;;;;;;5086858;28;20112;-83
2023/08/26 11:13:01;;;;;;;6.85;1.70;;;19.30;99.90;;;;;;5091611;28;20040;-83
2023/08/26 11:15:28;;;;;;;4.43;1.60;;;19.20;99.90;;;;;;5097136;28;20032;-83
2023/08/26 11:17:54;;;;;;;5.82;1.90;;;19.00;99.90;;;;;;5097022;28;20628;-83
2023/08/26 11:20:21;;;;;;;4.03;1.50;;;18.70;99.90;;;;;;5074938;28;20139;-80
2023/08/26 11:22:48;;;;;;;5.43;1.55;;;18.40;99.90;;;;;;5068215;28;20081;-84
2023/08/26 11:25:15;;;;;;;5.40;1.73;;;18.00;99.90;;;;;;5083026;28;20093;-81
2023/08/26 11:27:42;;;;;;;4.20;1.60;;;17.80;99.90;;;;;;5095220;28;20075;-82
2023/08/26 11:30:09;;;;;;;4.38;1.77;;;17.50;99.90;;;;;;5094437;28;20044;-85
2023/08/26 11:32:36;;;;;;;6.38;1.80;;;17.30;99.90;;;;;;5084807;28;20028;-80
2023/08/26 11:35:03;;;;;;;6.03;1.70;;;17.30;99.90;;;;;;5096390;28;20095;-83
2023/08/26 11:40:18;;;;;;;5.63;1.88;;;17.30;99.90;;;;;;5076088;28;20793;-82
2023/08/26 11:42:45;;;;;;;5.13;1.98;;;17.30;99.90;;;;;;5096657;28;20044;-81
2023/08/26 11:45:11;;;;;;;4.78;1.92;;;17.30;99.90;;;;;;5082578;28;20047;-82
2023/08/26 11:47:38;;;;;;;5.07;1.70;;;17.30;99.90;;;;;;5087405;28;20145;-83
2023/08/26 11:50:05;;;;;;;4.20;1.45;;;17.40;99.90;;;;;;5083083;28;20048;-81
2023/08/26 11:52:32;;;;;;;4.50;1.50;;;17.50;99.90;;;;;;5057362;28;20448;-81
2023/08/26 11:54:59;;;;;;;4.50;1.48;;;17.40;99.90;;;;;;5045172;28;20123;-81
2023/08/26 11:57:26;;;;;;;7.32;1.60;;;17.50;99.90;;;;;;5062353;28;20033;-79
2023/08/26 11:59:53;;;;;;;5.82;1.30;;;17.70;99.90;;;;;;5066576;28;20079;-84
2023/08/26 12:02:21;;;;;;;3.42;1.40;;;18.10;99.90;;;;;;5075909;28;20439;-83
2023/08/26 12:04:47;;;;;;;5.40;1.50;;;18.80;99.90;;;;;;5062344;28;20040;-80
2023/08/26 12:10:00;;;;;;;4.70;1.30;;;19.90;99.90;;;;;;5075806;28;20375;-81
2023/08/26 12:12:26;;;;;;;3.78;1.20;;;20.90;99.90;;;;;;5075864;28;20506;-84
2023/08/26 12:14:53;;;;;;;3.85;1.30;;;21.80;99.90;;;;;;5071709;28;20116;-83
2023/08/26 12:17:22;;;;;;;5.07;1.50;;;22.40;99.90;;;;;;5048011;28;20040;-83
2023/08/26 12:19:48;;;;;;;4.68;1.20;;;22.40;99.90;;;;;;5060921;28;20094;-82
2023/08/26 12:22:15;;;;;;;4.40;1.38;;;22.30;99.90;;;;;;5075365;28;20497;-84
2023/08/26 12:24:42;;;;;;;4.82;1.30;;;22.60;99.90;;;;;;5063921;28;20047;-80
2023/08/26 12:27:09;;;;;;;4.50;1.20;;;22.80;99.90;;;;;;5054854;28;20041;-85
2023/08/26 12:29:35;;;;;;;4.60;1.27;;;22.80;99.90;;;;;;5066949;28;20430;-84
2023/08/26 12:32:02;;;;;;;4.55;1.27;;;22.30;99.90;;;;;;5053412;28;20040;-82
2023/08/26 12:34:29;;;;;;;4.30;1.27;;;21.80;99.90;;;;;;5072825;28;20490;-83
2023/08/26 12:36:57;;;;;;;7.10;1.10;;;21.80;99.90;;;;;;5061515;28;20486;-81
2023/08/26 12:39:26;;;;;;;4.40;1.30;;;22.30;99.90;;;;;;5066759;28;20037;-84
2023/08/26 12:41:53;;;;;;;3.25;1.15;;;22.20;99.90;;;;;;5070432;28;20123;-83
2023/08/26 12:44:19;;;;;;;2.50;1.00;;;22.00;99.90;;;;;;5075452;28;20070;-84
2023/08/26 12:46:47;;;;;;;4.80;1.20;;;21.60;99.90;;;;;;5074887;28;20470;-85
2023/08/26 12:49:14;;;;;;;2.72;1.00;;;21.00;99.90;;;;;;5079612;28;20040;-83
2023/08/26 12:51:52;;;;;;;3.05;1.10;;;20.60;99.90;;;;;;5085449;28;20045;-81
2023/08/26 12:54:19;;;;;;;2.42;1.00;;;20.20;99.90;;;;;;5058389;28;20049;-83
2023/08/26 12:56:47;;;;;;;3.35;1.00;;;19.90;99.90;;;;;;5076545;28;20127;-79
2023/08/26 12:59:14;;;;;;;3.05;1.13;;;19.60;99.90;;;;;;5086212;28;20065;-82
2023/08/26 13:01:40;;;;;;;3.03;1.00;;;19.30;99.90;;;;;;5070656;28;20055;-84
2023/08/26 13:04:07;;;;;;;3.30;1.13;;;19.20;99.90;;;;;;5055185;28;20071;-81